Time;durP1;ratioP1;P1;durP2;ratioP2;P2;SDS_P1;SDS_P2;PMS_P1;PMS_P2;Temp;Humidity;BMP_temperature;BMP_pressure;BME280_temperature;BME280_humidity;BME280_pressure;Samples;Min_cycle;Max_cycle;Signal;HPM_P1;HPM_P2
2023/06/02 00:02:38;;;;;;;18.85;8.18;;;;;;;13.42;57.47;100404.52;1771115;81;21181;-54
2023/06/02 00:05:44;;;;;;;18.25;8.05;;;;;;;13.41;57.60;100403.66;1771008;81;21212;-54
2023/06/02 00:08:52;;;;;;;16.37;7.12;;;;;;;13.39;57.72;100401.64;1771165;81;21213;-54
2023/06/02 00:11:59;;;;;;;16.00;7.20;;;;;;;13.38;57.89;100403.22;1771218;81;21351;-54
2023/06/02 00:15:07;;;;;;;14.87;7.45;;;;;;;13.36;58.03;100399.29;1771016;81;21567;-53
2023/06/02 00:18:15;;;;;;;20.12;7.03;;;;;;;13.35;58.07;100403.06;1771023;81;21216;-54
2023/06/02 00:21:22;;;;;;;21.05;6.90;;;;;;;13.33;58.20;100406.52;1771291;81;21323;-54
2023/06/02 00:24:28;;;;;;;13.05;6.17;;;;;;;13.32;58.36;100410.33;1771175;80;21216;-54
2023/06/02 00:27:35;;;;;;;14.43;6.20;;;;;;;13.29;58.44;100406.59;1771297;80;21343;-53
2023/06/02 00:30:43;;;;;;;17.85;6.62;;;;;;;13.25;58.47;100399.79;1772007;80;21184;-54
2023/06/02 00:33:49;;;;;;;14.20;5.53;;;;;;;13.22;58.47;100406.19;1771143;80;21373;-53
2023/06/02 00:36:54;;;;;;;12.65;5.60;;;;;;;13.15;58.50;100410.22;1770939;79;21339;-52
2023/06/02 00:40:00;;;;;;;10.58;4.45;;;;;;;13.11;58.63;100403.38;1771054;79;21205;-53
2023/06/02 00:43:07;;;;;;;10.50;5.10;;;;;;;13.09;58.76;100410.13;1771416;80;21169;-53
2023/06/02 00:46:12;;;;;;;8.05;4.75;;;;;;;13.06;58.89;100412.75;1771142;80;21315;-53
2023/06/02 00:49:18;;;;;;;7.15;3.45;;;;;;;13.05;59.01;100411.57;1771225;81;21429;-52
2023/06/02 00:52:25;;;;;;;9.55;5.08;;;;;;;13.00;59.08;100409.87;1771058;79;21331;-54
2023/06/02 00:55:31;;;;;;;10.08;4.28;;;;;;;12.95;59.10;100412.34;1770900;80;21334;-53
2023/06/02 00:58:37;;;;;;;11.20;4.95;;;;;;;12.91;59.15;100411.00;1770773;80;21394;-54
2023/06/02 01:01:44;;;;;;;11.90;5.95;;;;;;;12.84;59.13;100402.69;1770935;79;21186;-54
2023/06/02 01:04:52;;;;;;;7.00;4.45;;;;;;;12.79;59.14;100401.55;1771136;80;21196;-55
2023/06/02 01:08:00;;;;;;;8.98;5.25;;;;;;;12.75;59.32;100401.06;1768742;80;21350;-54
2023/06/02 01:11:07;;;;;;;14.70;4.75;;;;;;;12.74;59.53;100402.63;1771591;79;21268;-54
2023/06/02 01:14:12;;;;;;;11.60;5.90;;;;;;;12.70;59.61;100402.14;1770791;81;21351;-54
2023/06/02 01:17:18;;;;;;;12.37;5.08;;;;;;;12.69;59.75;100403.70;1771672;80;21363;-54
2023/06/02 01:20:23;;;;;;;7.75;4.58;;;;;;;12.68;59.90;100403.39;1764842;80;21868;-53
2023/06/02 01:23:40;;;;;;;10.50;5.15;;;;;;;12.66;60.03;100403.58;1771508;80;21752;-53
2023/06/02 01:26:46;;;;;;;9.55;4.80;;;;;;;12.64;60.07;100407.02;1771148;80;21190;-54
2023/06/02 01:29:55;;;;;;;11.55;5.65;;;;;;;12.61;60.15;100410.15;1770971;80;21158;-53
2023/06/02 01:33:29;;;;;;;11.03;4.90;;;;;;;12.58;60.22;100416.02;1771111;81;21177;-53
2023/06/02 01:36:36;;;;;;;8.88;5.17;;;;;;;12.56;60.31;100415.89;1770762;81;21314;-53
2023/06/02 01:39:42;;;;;;;13.83;6.62;;;;;;;12.50;60.27;100417.98;1771315;80;21198;-53
2023/06/02 01:42:49;;;;;;;13.60;6.08;;;;;;;12.46;60.31;100413.92;1771532;80;21390;-53
2023/06/02 01:45:54;;;;;;;10.53;6.15;;;;;;;12.42;60.40;100418.93;1771297;80;21189;-54
2023/06/02 01:48:57;;;;;;;12.13;5.50;;;;;;;12.39;60.42;100417.07;1771612;80;21343;-54
2023/06/02 01:51:54;;;;;;;10.00;5.87;;;;;;;12.36;60.51;100415.56;1771315;80;21193;-53
2023/06/02 01:54:48;;;;;;;12.25;5.67;;;;;;;12.36;60.67;100411.45;1770852;80;21228;-54
2023/06/02 01:57:54;;;;;;;15.13;5.72;;;;;;;12.36;60.73;100407.84;1771104;80;21347;-53
2023/06/02 02:01:00;;;;;;;9.03;5.75;;;;;;;12.33;60.77;100414.57;1771226;80;21712;-53
2023/06/02 02:04:06;;;;;;;13.43;5.53;;;;;;;12.31;60.87;100419.38;1771168;80;21826;-53
2023/06/02 02:07:13;;;;;;;12.68;5.80;;;;;;;12.34;61.00;100414.89;1771278;80;21209;-54
2023/06/02 02:10:19;;;;;;;11.48;6.10;;;;;;;12.36;61.16;100420.19;1771027;80;21377;-53
2023/06/02 02:13:24;;;;;;;14.40;6.17;;;;;;;12.37;61.28;100414.52;1771166;81;21292;-53
2023/06/02 02:16:24;;;;;;;11.78;5.67;;;;;;;12.38;61.32;100407.14;1770970;81;21705;-53
2023/06/02 02:19:31;;;;;;;11.83;6.00;;;;;;;12.37;61.31;100411.77;1771381;80;21931;-53
2023/06/02 02:22:37;;;;;;;14.03;5.90;;;;;;;12.40;61.43;100411.94;1771096;80;21741;-53
2023/06/02 02:25:42;;;;;;;11.20;5.95;;;;;;;12.42;61.60;100409.32;1771234;80;21279;-53
2023/06/02 02:28:48;;;;;;;12.73;6.55;;;;;;;12.47;61.72;100412.88;1771656;80;21228;-54
2023/06/02 02:31:55;;;;;;;10.88;5.35;;;;;;;12.51;61.87;100414.22;1772274;80;21351;-53
2023/06/02 02:35:01;;;;;;;13.03;5.75;;;;;;;12.57;62.04;100410.20;1771293;80;21232;-53
2023/06/02 02:38:08;;;;;;;11.48;6.55;;;;;;;12.63;62.16;100414.94;1771076;80;21796;-53
2023/06/02 02:41:16;;;;;;;12.23;5.72;;;;;;;12.71;62.27;100418.11;1771054;80;21326;-55
2023/06/02 02:44:23;;;;;;;13.80;5.83;;;;;;;12.79;62.44;100425.75;1771294;80;21192;-54
2023/06/02 02:47:30;;;;;;;16.15;6.35;;;;;;;12.87;62.56;100423.42;1771367;80;21875;-53
2023/06/02 02:50:35;;;;;;;15.78;6.55;;;;;;;12.94;62.68;100422.47;1771081;81;21220;-53
2023/06/02 02:53:42;;;;;;;11.12;6.12;;;;;;;13.03;62.74;100424.09;1764357;81;21359;-53
2023/06/02 02:56:48;;;;;;;16.17;5.97;;;;;;;13.12;62.87;100425.73;1762108;80;21339;-53
2023/06/02 02:59:55;;;;;;;13.32;6.33;;;;;;;13.21;62.95;100434.19;1771109;80;21240;-53
2023/06/02 03:03:02;;;;;;;16.80;6.53;;;;;;;13.30;63.03;100432.20;1771298;79;21386;-53
2023/06/02 03:06:11;;;;;;;17.32;7.72;;;;;;;13.38;63.13;100426.05;1771432;80;21292;-54
2023/06/02 03:09:18;;;;;;;17.32;6.75;;;;;;;13.49;63.21;100426.09;1771012;80;21339;-54
2023/06/02 03:12:25;;;;;;;19.17;6.62;;;;;;;13.59;63.29;100425.78;1770984;81;21690;-54
2023/06/02 03:15:33;;;;;;;16.12;6.80;;;;;;;13.70;63.39;100425.27;1771599;80;21248;-54
2023/06/02 03:18:42;;;;;;;11.45;6.50;;;;;;;13.81;63.47;100426.13;1771258;80;21706;-51
2023/06/02 03:21:48;;;;;;;15.93;6.80;;;;;;;13.91;63.58;100422.00;1771246;80;21200;-51
2023/06/02 03:24:56;;;;;;;20.12;6.95;;;;;;;14.03;63.65;100416.83;1771150;80;21339;-50
2023/06/02 03:28:02;;;;;;;10.35;5.75;;;;;;;14.14;63.72;100414.92;1771063;79;21224;-49
2023/06/02 03:31:11;;;;;;;14.50;6.40;;;;;;;14.27;63.76;100417.83;1771089;80;21227;-50
2023/06/02 03:34:20;;;;;;;14.60;5.90;;;;;;;14.39;63.82;100416.22;1771566;79;21327;-50
2023/06/02 03:37:26;;;;;;;12.85;6.03;;;;;;;14.51;63.91;100415.98;1771198;81;21192;-50
2023/06/02 03:40:32;;;;;;;14.80;7.42;;;;;;;14.63;63.98;100411.13;1771278;81;21878;-50
2023/06/02 03:43:39;;;;;;;13.50;6.15;;;;;;;14.75;64.04;100417.77;1771095;81;21208;-50
2023/06/02 03:46:45;;;;;;;11.05;6.50;;;;;;;14.87;64.08;100412.01;1770970;81;21701;-50
2023/06/02 03:49:52;;;;;;;14.70;6.72;;;;;;;15.02;64.12;100414.64;1770651;80;21343;-49
2023/06/02 03:52:58;;;;;;;12.60;5.92;;;;;;;15.14;64.13;100413.03;1770500;79;21212;-49
2023/06/02 03:56:04;;;;;;;12.85;5.83;;;;;;;15.27;64.13;100417.20;1770495;81;21698;-49
2023/06/02 03:59:10;;;;;;;13.30;6.10;;;;;;;15.40;64.11;100417.30;1771726;80;21363;-51
2023/06/02 04:02:17;;;;;;;12.70;6.15;;;;;;;15.53;64.09;100414.60;1772782;80;21331;-50
2023/06/02 04:05:23;;;;;;;13.88;5.62;;;;;;;15.67;64.07;100410.82;1773062;80;21380;-50
2023/06/02 04:08:29;;;;;;;8.78;4.67;;;;;;;15.80;64.04;100412.25;1772731;80;21788;-50
2023/06/02 04:11:36;;;;;;;11.53;5.30;;;;;;;15.92;63.98;100413.32;1772691;80;21347;-49
2023/06/02 04:14:45;;;;;;;13.85;6.10;;;;;;;16.06;63.93;100406.75;1772861;79;21857;-50
2023/06/02 04:17:51;;;;;;;11.53;5.53;;;;;;;16.22;63.89;100408.28;1772658;80;21363;-50
2023/06/02 04:20:57;;;;;;;11.35;5.60;;;;;;;16.34;63.84;100408.81;1772550;80;21343;-50
2023/06/02 04:24:06;;;;;;;10.68;4.85;;;;;;;16.49;63.80;100407.78;1764656;80;21244;-50
2023/06/02 04:27:12;;;;;;;12.07;5.72;;;;;;;16.62;63.75;100406.39;1772473;80;21244;-49
2023/06/02 04:30:18;;;;;;;6.78;4.47;;;;;;;16.76;63.70;100409.45;1772434;80;21339;-51
2023/06/02 04:33:23;;;;;;;8.35;4.25;;;;;;;16.88;63.62;100402.19;1772189;80;21208;-51
2023/06/02 04:36:32;;;;;;;8.88;4.75;;;;;;;17.01;63.55;100403.55;1742629;82;21343;-51
2023/06/02 04:39:39;;;;;;;9.60;4.53;;;;;;;17.13;63.44;100406.80;1741591;82;21374;-49
2023/06/02 04:42:46;;;;;;;9.03;4.40;;;;;;;17.28;63.33;100410.70;1759935;79;21213;-50
2023/06/02 04:45:51;;;;;;;11.05;4.50;;;;;;;17.39;63.24;100403.09;1771980;79;21343;-50
2023/06/02 04:48:57;;;;;;;8.60;3.52;;;;;;;17.54;63.20;100400.91;1769898;80;21204;-50
2023/06/02 04:52:02;;;;;;;9.58;3.92;;;;;;;17.67;63.11;100403.63;1757335;81;21339;-50
2023/06/02 04:55:08;;;;;;;14.90;5.60;;;;;;;17.80;62.96;100399.41;1772084;80;21402;-50
2023/06/02 04:58:16;;;;;;;23.47;13.58;;;;;;;17.93;62.89;100399.33;1771666;80;21665;-50
2023/06/02 05:01:21;;;;;;;10.18;4.17;;;;;;;18.07;62.75;100392.63;1740495;81;21557;-51
2023/06/02 05:04:28;;;;;;;18.48;3.92;;;;;;;18.20;62.63;100390.28;1740051;81;21199;-49
2023/06/02 05:07:34;;;;;;;10.08;3.83;;;;;;;18.32;62.55;100385.17;1736824;81;21199;-52
2023/06/02 05:10:39;;;;;;;9.73;3.90;;;;;;;18.48;62.46;100385.17;1735142;81;21580;-53
2023/06/02 05:13:46;;;;;;;8.25;3.10;;;;;;;18.62;62.35;100380.67;1733043;81;21258;-53
2023/06/02 05:16:54;;;;;;;8.78;3.62;;;;;;;18.76;62.24;100379.45;1736066;81;21195;-54
2023/06/02 05:20:01;;;;;;;7.67;3.37;;;;;;;18.91;62.13;100381.34;1736618;82;21172;-54
2023/06/02 05:23:06;;;;;;;6.70;2.90;;;;;;;19.06;61.96;100380.94;1736140;82;21566;-54
2023/06/02 05:26:11;;;;;;;8.33;3.50;;;;;;;19.19;61.76;100384.95;1736438;82;21200;-53
2023/06/02 05:29:20;;;;;;;9.25;3.33;;;;;;;19.34;61.61;100384.08;1715058;80;21275;-52
2023/06/02 05:32:29;;;;;;;7.50;3.15;;;;;;;19.48;61.43;100375.02;1720527;82;21865;-54
2023/06/02 05:35:36;;;;;;;6.42;2.55;;;;;;;19.60;61.25;100373.99;1719419;81;21783;-53
2023/06/02 05:38:43;;;;;;;6.10;2.60;;;;;;;19.77;61.06;100381.14;1690425;82;21358;-52
2023/06/02 05:41:51;;;;;;;5.08;2.60;;;;;;;19.90;60.81;100375.41;1701255;81;21359;-52
2023/06/02 05:44:58;;;;;;;4.83;2.60;;;;;;;20.03;60.61;100379.34;1748873;81;21767;-54
2023/06/02 05:48:08;;;;;;;8.43;3.12;;;;;;;20.17;60.39;100375.34;1728791;82;21212;-53
2023/06/02 05:51:14;;;;;;;4.97;2.70;;;;;;;20.29;60.15;100379.84;1722830;81;21192;-52
2023/06/02 05:54:21;;;;;;;5.00;2.70;;;;;;;20.43;59.95;100377.66;1724373;81;21870;-54
2023/06/02 05:57:28;;;;;;;13.00;3.05;;;;;;;20.56;59.71;100378.84;1736245;82;21763;-53
2023/06/02 06:00:38;;;;;;;6.35;2.35;;;;;;;20.68;59.47;100375.50;1727218;80;21189;-52
2023/06/02 06:03:46;;;;;;;9.35;3.20;;;;;;;20.80;59.17;100368.02;1755508;81;21232;-53
2023/06/02 06:06:54;;;;;;;5.35;2.95;;;;;;;20.94;58.85;100380.59;1754531;79;21200;-53
2023/06/02 06:10:01;;;;;;;7.85;3.10;;;;;;;21.07;58.55;100373.42;1702628;82;21246;-52
2023/06/02 06:13:08;;;;;;;8.00;2.70;;;;;;;21.21;58.26;100373.98;1691832;83;21210;-51
2023/06/02 06:16:16;;;;;;;6.42;3.00;;;;;;;21.33;57.98;100372.87;1701050;83;21229;-55
2023/06/02 06:19:20;;;;;;;5.95;2.60;;;;;;;21.47;57.62;100377.63;1766693;81;21774;-52
2023/06/02 06:22:27;;;;;;;4.47;2.58;;;;;;;21.57;57.25;100371.71;1753623;80;21369;-53
2023/06/02 06:25:33;;;;;;;4.78;2.22;;;;;;;21.69;56.85;100371.11;1705876;82;21763;-53
2023/06/02 06:28:41;;;;;;;6.33;2.90;;;;;;;21.80;56.44;100371.64;1705350;82;21215;-53
2023/06/02 06:31:48;;;;;;;5.50;2.42;;;;;;;21.89;56.04;100370.70;1705424;82;21231;-54
2023/06/02 06:34:55;;;;;;;5.87;2.95;;;;;;;21.98;55.64;100372.84;1692696;84;21756;-55
2023/06/02 06:38:03;;;;;;;7.35;2.60;;;;;;;22.08;55.32;100362.42;1706419;82;21704;-55
2023/06/02 06:41:11;;;;;;;3.30;2.22;;;;;;;22.17;54.93;100361.76;1729199;82;21189;-53
2023/06/02 06:44:27;;;;;;;7.37;2.87;;;;;;;22.25;54.55;100350.73;1719695;81;21283;-53
2023/06/02 06:47:34;;;;;;;7.22;2.52;;;;;;;22.37;54.18;100355.70;1721773;82;21399;-53
2023/06/02 06:50:41;;;;;;;6.17;2.30;;;;;;;22.46;53.80;100347.73;1774836;79;21220;-58
2023/06/02 06:53:49;;;;;;;5.35;2.58;;;;;;;22.55;53.37;100346.27;1767412;79;21220;-55
2023/06/02 06:56:58;;;;;;;7.58;2.60;;;;;;;22.65;52.91;100349.19;1764540;79;21339;-58
2023/06/02 07:00:05;;;;;;;6.33;2.50;;;;;;;22.74;52.58;100346.28;1748091;79;21420;-58
2023/06/02 07:03:22;;;;;;;4.83;2.20;;;;;;;22.83;52.18;100348.93;1736151;81;21748;-57
2023/06/02 07:06:32;;;;;;;5.40;2.35;;;;;;;22.91;51.74;100347.09;1727624;81;21721;-56
2023/06/02 07:09:46;;;;;;;4.97;2.60;;;;;;;22.98;51.30;100347.74;1739354;80;21563;-53
2023/06/02 07:12:54;;;;;;;6.55;2.42;;;;;;;23.05;50.85;100352.61;1759349;81;21212;-53
2023/06/02 07:15:59;;;;;;;4.47;2.30;;;;;;;23.11;50.50;100345.98;1756636;81;21224;-52
2023/06/02 07:19:05;;;;;;;6.22;2.77;;;;;;;23.18;50.08;100347.47;1733287;81;21206;-52
2023/06/02 07:22:14;;;;;;;6.12;2.58;;;;;;;23.25;49.68;100343.09;1712406;81;21230;-53
2023/06/02 07:25:20;;;;;;;8.70;2.55;;;;;;;23.34;49.32;100351.38;1719354;81;21180;-54
2023/06/02 07:28:25;;;;;;;5.15;2.30;;;;;;;23.40;48.93;100342.77;1729291;80;21239;-51
2023/06/02 07:31:34;;;;;;;5.60;2.55;;;;;;;23.49;48.61;100341.77;1732706;81;21292;-53
2023/06/02 07:34:40;;;;;;;5.70;2.60;;;;;;;23.58;48.29;100341.59;1718716;81;21869;-52
2023/06/02 07:37:47;;;;;;;7.83;2.80;;;;;;;23.65;47.92;100339.45;1726725;82;21239;-52
2023/06/02 07:40:54;;;;;;;4.17;2.50;;;;;;;23.73;47.58;100344.58;1735401;81;21227;-54
2023/06/02 07:44:02;;;;;;;4.87;2.33;;;;;;;23.81;47.25;100337.11;1732293;81;21252;-54
2023/06/02 07:47:07;;;;;;;5.85;2.45;;;;;;;23.89;46.95;100345.03;1724615;82;21744;-53
2023/06/02 07:50:14;;;;;;;5.03;2.50;;;;;;;23.99;46.65;100332.56;1691704;83;21424;-54
2023/06/02 07:53:19;;;;;;;6.33;2.50;;;;;;;24.07;46.27;100332.66;1725509;81;21196;-53
2023/06/02 07:56:25;;;;;;;6.47;2.62;;;;;;;24.15;45.92;100333.01;1732707;81;21191;-53
2023/06/02 07:59:31;;;;;;;6.90;2.70;;;;;;;24.22;45.58;100328.05;1731671;82;22205;-54
2023/06/02 08:02:36;;;;;;;10.45;2.58;;;;;;;24.29;45.33;100334.25;1732818;80;21180;-53
2023/06/02 08:05:45;;;;;;;5.85;2.90;;;;;;;24.37;45.00;100337.95;1757089;81;21180;-58
2023/06/02 08:08:54;;;;;;;7.33;2.62;;;;;;;24.46;44.79;100338.33;1764795;81;21207;-57
2023/06/02 08:12:04;;;;;;;4.60;2.47;;;;;;;24.55;44.48;100343.16;1733153;81;21196;-56
2023/06/02 08:15:12;;;;;;;5.55;2.55;;;;;;;24.59;44.10;100339.28;1723072;82;22034;-57
2023/06/02 08:18:22;;;;;;;5.58;2.25;;;;;;;24.62;43.73;100342.39;1677579;84;21222;-56
2023/06/02 08:21:30;;;;;;;7.12;2.95;;;;;;;24.63;43.36;100342.67;1705270;82;21213;-55
2023/06/02 08:24:38;;;;;;;6.75;3.30;;;;;;;24.68;43.08;100337.14;1711298;82;21272;-56
2023/06/02 08:27:44;;;;;;;5.20;2.80;;;;;;;24.69;42.79;100338.81;1747333;81;21219;-57
2023/06/02 08:30:51;;;;;;;5.00;2.70;;;;;;;24.74;42.52;100340.26;1746757;81;21200;-54
2023/06/02 08:34:00;;;;;;;9.10;2.83;;;;;;;24.76;42.18;100336.64;1751883;81;21196;-59
2023/06/02 08:37:17;;;;;;;6.05;2.50;;;;;;;24.82;41.92;100336.95;1757822;80;21566;-61
2023/06/02 08:40:26;;;;;;;3.95;2.60;;;;;;;24.86;41.61;100333.89;1743838;81;21195;-56
2023/06/02 08:43:33;;;;;;;5.78;2.98;;;;;;;24.93;41.32;100332.25;1718658;82;21215;-56
2023/06/02 08:46:39;;;;;;;5.60;2.52;;;;;;;24.97;41.06;100335.64;1735390;82;21755;-57
2023/06/02 08:49:50;;;;;;;5.97;2.90;;;;;;;25.03;40.79;100333.17;1737856;81;21250;-56
2023/06/02 08:52:58;;;;;;;5.92;2.80;;;;;;;25.07;40.50;100332.05;1743130;81;21199;-56
2023/06/02 08:56:04;;;;;;;7.53;2.83;;;;;;;25.16;40.29;100334.64;1719252;83;21903;-59
2023/06/02 08:59:13;;;;;;;6.87;3.75;;;;;;;25.25;40.08;100336.34;1741324;80;21221;-58
2023/06/02 09:02:20;;;;;;;6.03;3.42;;;;;;;25.31;39.84;100336.10;1757133;81;21191;-58
2023/06/02 09:05:26;;;;;;;8.80;2.72;;;;;;;25.39;39.52;100334.21;1743437;80;21267;-56
2023/06/02 09:08:38;;;;;;;5.85;2.75;;;;;;;25.48;39.34;100337.34;1745004;81;21228;-56
2023/06/02 09:11:44;;;;;;;5.03;2.70;;;;;;;25.56;39.10;100325.60;1740783;80;21380;-54
2023/06/02 09:14:55;;;;;;;5.78;2.70;;;;;;;25.64;38.97;100320.28;1765372;79;21172;-54
2023/06/02 09:18:12;;;;;;;5.62;2.90;;;;;;;25.75;38.73;100323.98;1747424;80;21208;-52
2023/06/02 09:21:36;;;;;;;5.45;2.80;;;;;;;25.84;38.61;100315.30;1741085;80;21622;-53
2023/06/02 09:24:40;;;;;;;6.78;2.77;;;;;;;25.93;38.31;100314.47;1757365;81;21210;-52
2023/06/02 09:27:51;;;;;;;6.28;2.77;;;;;;;25.96;38.02;100312.52;1759357;80;21216;-53
2023/06/02 09:31:01;;;;;;;6.20;3.05;;;;;;;26.02;37.77;100306.39;1769111;80;21592;-54
2023/06/02 09:34:19;;;;;;;5.78;2.80;;;;;;;26.09;37.61;100300.78;1745641;79;21182;-54
2023/06/02 09:37:25;;;;;;;6.17;2.42;;;;;;;26.18;37.38;100306.66;1768192;80;21259;-53
2023/06/02 09:40:35;;;;;;;4.22;2.67;;;;;;;26.28;37.30;100310.89;1767800;80;21197;-57
2023/06/02 09:43:43;;;;;;;8.30;2.52;;;;;;;26.39;37.09;100288.71;1756596;80;21247;-56
2023/06/02 09:46:52;;;;;;;6.55;2.67;;;;;;;26.46;36.71;100285.07;1763721;79;21188;-58
2023/06/02 09:49:58;;;;;;;7.37;2.85;;;;;;;26.50;36.46;100280.56;1751666;80;21180;-55
2023/06/02 09:53:13;;;;;;;7.37;2.70;;;;;;;26.59;36.30;100290.12;1762039;80;21275;-56
2023/06/02 09:56:22;;;;;;;4.40;2.72;;;;;;;26.68;36.14;100284.78;1763574;79;21219;-56
2023/06/02 09:59:28;;;;;;;6.75;3.12;;;;;;;26.77;35.99;100279.70;1765240;79;22086;-57
2023/06/02 10:02:34;;;;;;;10.03;3.10;;;;;;;26.87;35.78;100277.44;1749503;79;21295;-57
2023/06/02 10:05:41;;;;;;;4.62;2.67;;;;;;;26.97;35.62;100276.86;1761055;79;21214;-56
2023/06/02 10:09:04;;;;;;;4.25;2.70;;;;;;;27.06;35.40;100276.55;1776459;79;21799;-54
2023/06/02 10:12:28;;;;;;;4.47;2.83;;;;;;;27.08;35.19;100270.08;1755048;79;21750;-56
2023/06/02 10:15:56;;;;;;;4.87;2.37;;;;;;;27.14;35.03;100264.70;1762922;81;21174;-56
2023/06/02 10:19:24;;;;;;;3.67;2.47;;;;;;;27.20;34.80;100259.34;1766792;79;21741;-57
2023/06/02 10:22:34;;;;;;;6.47;2.90;;;;;;;27.24;34.60;100262.42;1764335;79;21169;-54
2023/06/02 10:25:50;;;;;;;6.60;2.60;;;;;;;27.30;34.38;100262.14;1759927;79;21239;-57
2023/06/02 10:28:55;;;;;;;8.28;2.98;;;;;;;27.40;34.27;100259.26;1758547;80;21193;-55
2023/06/02 10:32:03;;;;;;;3.92;2.55;;;;;;;27.56;34.27;100261.42;1760357;79;21713;-56
2023/06/02 10:35:09;;;;;;;7.30;2.83;;;;;;;27.72;34.20;100252.61;1759413;79;21188;-56
2023/06/02 10:38:38;;;;;;;7.80;2.80;;;;;;;27.86;34.03;100251.38;1767497;79;21256;-56
2023/06/02 10:42:18;;;;;;;4.28;2.72;;;;;;;27.91;33.71;100249.97;1753945;79;21188;-54
2023/06/02 10:45:32;;;;;;;6.10;2.85;;;;;;;27.98;33.56;100246.83;1755534;80;21532;-56
2023/06/02 10:48:48;;;;;;;5.17;2.70;;;;;;;28.05;33.32;100244.53;1763833;81;21193;-55
2023/06/02 10:52:14;;;;;;;8.70;4.67;;;;;;;28.14;33.20;100245.02;1727549;82;21231;-54
2023/06/02 10:55:27;;;;;;;8.40;3.10;;;;;;;28.22;32.99;100242.98;1709762;82;21411;-56
2023/06/02 10:58:56;;;;;;;6.20;2.87;;;;;;;28.30;32.83;100248.53;1739630;82;21228;-57
2023/06/02 11:02:03;;;;;;;7.92;2.77;;;;;;;28.26;32.55;100247.46;1767800;80;21237;-55
2023/06/02 11:05:34;;;;;;;6.03;2.80;;;;;;;28.21;32.33;100241.87;1766759;81;21213;-54
2023/06/02 11:08:41;;;;;;;7.37;3.20;;;;;;;28.23;32.16;100235.34;1741384;80;21422;-55
2023/06/02 11:12:01;;;;;;;6.45;2.85;;;;;;;28.23;32.01;100239.58;1705397;82;21378;-56
2023/06/02 11:15:12;;;;;;;9.18;3.00;;;;;;;28.33;32.02;100240.34;1760173;79;21367;-55
2023/06/02 11:18:38;;;;;;;6.12;3.00;;;;;;;28.47;31.88;100239.07;1768285;80;21773;-57
2023/06/02 11:21:44;;;;;;;7.53;2.65;;;;;;;28.52;31.65;100231.45;1738269;82;21585;-56
2023/06/02 11:24:51;;;;;;;4.67;3.08;;;;;;;28.61;31.51;100238.11;1747822;81;21534;-55
2023/06/02 11:27:56;;;;;;;6.22;3.08;;;;;;;28.66;31.32;100230.17;1758986;81;21244;-55
2023/06/02 11:31:19;;;;;;;8.25;2.80;;;;;;;28.71;31.15;100228.72;1737652;82;21251;-57
2023/06/02 11:34:27;;;;;;;5.80;2.77;;;;;;;28.75;31.02;100224.14;1749616;80;21209;-55
2023/06/02 11:37:33;;;;;;;4.03;2.75;;;;;;;28.78;30.78;100219.34;1759407;80;21355;-55
2023/06/02 11:40:40;;;;;;;4.47;2.65;;;;;;;28.77;30.62;100210.60;1710249;82;21744;-56
2023/06/02 11:43:52;;;;;;;6.28;3.30;;;;;;;28.78;30.51;100215.94;1743853;80;21206;-55
2023/06/02 11:46:59;;;;;;;5.12;3.08;;;;;;;28.83;30.43;100214.47;1756796;81;21753;-57
2023/06/02 11:50:05;;;;;;;8.80;3.22;;;;;;;28.85;30.18;100205.72;1762552;80;21261;-54
2023/06/02 11:53:22;;;;;;;7.03;3.22;;;;;;;28.87;30.09;100209.94;1760800;79;21259;-55
2023/06/02 11:56:28;;;;;;;6.25;2.85;;;;;;;28.86;30.03;100212.46;1767735;80;21557;-54
2023/06/02 11:59:33;;;;;;;5.67;2.95;;;;;;;28.91;29.99;100205.36;1767555;80;21205;-55
2023/06/02 12:02:39;;;;;;;4.55;2.92;;;;;;;28.97;29.87;100209.79;1740818;81;21860;-54
2023/06/02 12:05:47;;;;;;;6.28;3.58;;;;;;;28.95;29.60;100199.41;1766333;81;21247;-56
2023/06/02 12:08:53;;;;;;;5.20;3.50;;;;;;;28.88;29.46;100198.92;1723055;81;21207;-54
2023/06/02 12:12:00;;;;;;;7.80;3.27;;;;;;;28.86;29.41;100197.55;1716811;81;21187;-56
2023/06/02 12:15:06;;;;;;;7.97;5.65;;;;;;;28.84;29.36;100194.19;1733416;82;21262;-56
2023/06/02 12:18:13;;;;;;;7.00;3.37;;;;;;;28.82;29.26;100193.64;1697817;82;21453;-55
2023/06/02 12:21:38;;;;;;;6.47;2.95;;;;;;;28.77;29.14;100188.91;1722617;82;21188;-56
2023/06/02 12:24:44;;;;;;;10.53;4.65;;;;;;;28.75;29.05;100179.91;1729539;81;21195;-52
2023/06/02 12:27:50;;;;;;;9.38;3.33;;;;;;;28.72;28.97;100171.20;1720509;81;21266;-56
2023/06/02 12:30:57;;;;;;;5.70;2.80;;;;;;;28.75;29.02;100177.09;1710449;81;21247;-54
2023/06/02 12:34:05;;;;;;;7.97;2.85;;;;;;;28.79;28.94;100171.70;1725107;82;21251;-54
2023/06/02 12:37:17;;;;;;;6.20;2.60;;;;;;;28.78;28.83;100177.08;1734623;82;21348;-55
2023/06/02 12:40:26;;;;;;;6.08;2.92;;;;;;;28.76;28.78;100161.88;1734694;82;21647;-54
2023/06/02 12:43:32;;;;;;;7.05;2.95;;;;;;;28.72;28.74;100168.39;1733618;82;21274;-55
2023/06/02 12:46:39;;;;;;;10.53;3.45;;;;;;;28.72;28.73;100172.61;1735014;82;21705;-55
2023/06/02 12:49:52;;;;;;;5.92;3.10;;;;;;;28.67;28.65;100169.88;1734331;81;21802;-54
2023/06/02 12:52:57;;;;;;;7.33;2.95;;;;;;;28.63;28.67;100171.61;1722917;82;21270;-54
2023/06/02 12:56:03;;;;;;;6.30;2.62;;;;;;;28.65;28.70;100167.92;1733855;82;21223;-55
2023/06/02 12:59:11;;;;;;;6.55;2.80;;;;;;;28.66;28.61;100160.58;1732314;82;21804;-55
2023/06/02 13:02:17;;;;;;;6.55;3.08;;;;;;;28.69;28.61;100152.93;1729988;82;21215;-56
2023/06/02 13:05:24;;;;;;;5.35;2.60;;;;;;;28.74;28.57;100146.39;1691014;84;21208;-53
2023/06/02 13:08:28;;;;;;;7.37;3.20;;;;;;;28.74;28.55;100147.80;1739625;80;21542;-54
2023/06/02 13:11:35;;;;;;;5.35;2.80;;;;;;;28.77;28.51;100148.60;1770440;80;21201;-53
2023/06/02 13:14:56;;;;;;;5.35;2.75;;;;;;;28.71;28.48;100137.13;1769567;80;21232;-54
2023/06/02 13:18:02;;;;;;;5.78;2.62;;;;;;;28.69;28.43;100136.58;1740493;81;21255;-54
2023/06/02 13:21:08;;;;;;;9.20;3.67;;;;;;;28.68;28.43;100139.14;1743242;81;21761;-53
2023/06/02 13:24:16;;;;;;;5.03;2.55;;;;;;;28.68;28.41;100135.77;1769230;80;21225;-55
2023/06/02 13:27:22;;;;;;;6.55;2.80;;;;;;;28.70;28.35;100128.42;1768823;80;21170;-54
2023/06/02 13:30:29;;;;;;;4.53;2.60;;;;;;;28.72;28.35;100123.30;1769460;81;21570;-54
2023/06/02 13:33:36;;;;;;;6.85;3.15;;;;;;;28.81;28.29;100131.38;1769947;80;21244;-54
2023/06/02 13:36:44;;;;;;;3.70;2.62;;;;;;;28.80;28.29;100129.13;1769943;80;21733;-55
2023/06/02 13:39:51;;;;;;;5.00;2.98;;;;;;;28.80;28.26;100130.53;1770888;80;21363;-57
2023/06/02 13:42:58;;;;;;;5.90;2.72;;;;;;;28.82;28.24;100130.23;1742868;82;21703;-55
2023/06/02 13:46:05;;;;;;;9.18;2.90;;;;;;;28.82;28.28;100125.44;1743058;82;21433;-56
2023/06/02 13:49:10;;;;;;;6.97;2.87;;;;;;;28.84;28.28;100120.31;1740105;81;21520;-57
2023/06/02 13:52:17;;;;;;;4.85;2.90;;;;;;;28.88;28.30;100105.05;1761624;80;21177;-56
2023/06/02 13:55:24;;;;;;;5.67;2.60;;;;;;;28.90;28.24;100108.41;1769029;81;21181;-58
2023/06/02 13:58:34;;;;;;;5.58;2.95;;;;;;;28.92;28.21;100100.50;1763936;80;21327;-55
2023/06/02 14:01:36;;;;;;;5.12;2.77;;;;;;;28.94;28.17;100096.79;1772170;80;21212;-55
2023/06/02 14:04:44;;;;;;;7.42;3.15;;;;;;;28.94;28.16;100108.06;1771634;80;21244;-55
2023/06/02 14:07:50;;;;;;;6.58;2.80;;;;;;;28.91;28.08;100097.40;1772011;80;21367;-55
2023/06/02 14:10:57;;;;;;;6.28;3.05;;;;;;;28.90;27.98;100099.41;1767030;80;21615;-55
2023/06/02 14:14:05;;;;;;;7.12;2.83;;;;;;;28.85;27.92;100094.39;1759108;80;21188;-55
2023/06/02 14:17:12;;;;;;;4.65;3.20;;;;;;;28.85;27.94;100100.03;1718586;82;21195;-55
2023/06/02 14:20:18;;;;;;;7.12;3.12;;;;;;;28.84;27.88;100094.95;1746038;80;21204;-57
2023/06/02 14:23:25;;;;;;;7.55;2.83;;;;;;;28.87;27.86;100099.16;1759614;80;21327;-56
2023/06/02 14:26:33;;;;;;;7.17;2.75;;;;;;;28.91;27.85;100095.98;1752945;80;21749;-57
2023/06/02 14:29:40;;;;;;;6.87;3.00;;;;;;;28.91;27.79;100092.61;1761736;79;21601;-54
2023/06/02 14:32:47;;;;;;;5.92;3.08;;;;;;;28.92;27.70;100093.45;1769358;80;21196;-54